Time;durP1;ratioP1;P1;durP2;ratioP2;P2;SDS_P1;SDS_P2;PMS_P1;PMS_P2;Temp;Humidity;BMP_temperature;BMP_pressure;BME280_temperature;BME280_humidity;BME280_pressure;Samples;Min_cycle;Max_cycle;Signal;HPM_P1;HPM_P2
2022/09/30 01:24:29;;;;;;;8.48;7.35;;;;;;;;;;5020513;28;20190;-92
2022/09/30 01:27:30;;;;;;;8.95;8.35;;;;;;;;;;5038074;28;20195;-92
2022/09/30 01:33:27;;;;;;;;;;;;;;;;;;;;;
2022/09/30 03:22:10;;;;;;;8.43;7.72;;;;;;;;;;5475377;23;20222;-90
2022/09/30 03:28:11;;;;;;;8.02;7.47;;;;;;;;;;4991716;28;20205;-90
2022/09/30 03:31:25;;;;;;;7.35;6.90;;;;;;;;;;4973226;28;20193;-90
2022/09/30 04:48:15;;;;;;;9.27;8.50;;;;;;;;;;1279749;26;20226;-89
2022/09/30 04:51:04;;;;;;;9.20;8.32;;;;;;;;;;4954162;29;20203;-90
2022/09/30 04:56:25;;;;;;;9.00;8.30;;;;;;;;;;4935625;29;20670;-90
2022/09/30 04:58:57;;;;;;;8.45;7.60;;;;;;;;;;4955011;29;20200;-90
2022/09/30 05:01:48;;;;;;;9.90;9.05;;;;;;;;;;5052275;23;20249;-90
2022/09/30 05:10:33;;;;;;;9.13;8.52;;;;;;;;;;4960411;28;20202;-91
2022/09/30 05:13:29;;;;;;;12.40;10.20;;;;;;;;;;4957336;29;20256;-90
2022/09/30 05:15:55;;;;;;;10.95;9.82;;;;;;;;;;4952851;29;20222;-89
2022/09/30 05:18:41;;;;;;;32.00;10.10;;;;;;;;;;4938772;29;20542;-89
2022/09/30 05:21:21;;;;;;;;;;;;;;;;;;;;;
2022/09/30 05:23:47;;;;;;;10.40;9.60;;;;;;;;;;4956594;29;20261;-90
2022/09/30 05:26:13;;;;;;;16.92;10.70;;;;;;;;;;4954151;29;20257;-87
2022/09/30 05:28:52;;;;;;;;;;;;;;;;;;;;;
2022/09/30 05:31:19;;;;;;;10.18;8.95;;;;;;;;;;4936420;29;20270;-90
2022/09/30 05:33:46;;;;;;;17.85;10.75;;;;;;;;;;4955522;29;20210;-89
2022/09/30 05:36:17;;;;;;;10.40;9.23;;;;;;;;;;4974740;28;20281;-90
2022/09/30 05:38:43;;;;;;;10.23;9.02;;;;;;;;;;4254626;28;10000594;-88
2022/09/30 05:41:10;;;;;;;17.40;10.40;;;;;;;;;;4959988;28;20236;-88
2022/09/30 05:43:46;;;;;;;11.68;10.30;;;;;;;;;;4962920;28;20226;-88
2022/09/30 05:46:15;;;;;;;11.55;10.45;;;;;;;;;;4938432;29;20316;-88
2022/09/30 05:48:41;;;;;;;13.70;10.15;;;;;;;;;;4947175;29;20289;-88
2022/09/30 05:51:14;;;;;;;12.88;10.50;;;;;;;;;;4959238;28;20190;-89
2022/09/30 05:53:41;;;;;;;10.80;9.70;;;;;;;;;;4960690;28;20182;-87
2022/09/30 05:56:10;;;;;;;13.50;12.07;;;;;;;;;;4961883;28;20194;-89
2022/09/30 05:58:39;;;;;;;16.50;13.68;;;;;;;;;;4940473;29;20228;-89
2022/09/30 06:01:22;;;;;;;16.10;13.75;;;;;;;;;;4959742;28;20413;-89
2022/09/30 06:03:48;;;;;;;14.63;13.23;;;;;;;;;;4955703;28;20190;-90
2022/09/30 06:06:15;;;;;;;14.05;12.57;;;;;;;;;;4938675;28;20226;-90
2022/09/30 06:08:42;;;;;;;12.30;11.10;;;;;;;;;;4943949;28;20905;-89
2022/09/30 06:11:15;;;;;;;14.50;11.07;;;;;;;;;;4952025;28;20253;-91
2022/09/30 07:02:35;;;;;;;6.27;5.93;;;;;;;;;;3172034;26;20611;-89
2022/09/30 07:05:04;;;;;;;6.87;6.30;;;;;;;;;;4955215;29;20548;-92
2022/09/30 07:07:33;;;;;;;7.03;6.50;;;;;;;;;;4974385;28;20513;-93
2022/09/30 07:10:11;;;;;;;6.57;6.20;;;;;;;;;;5002524;28;20436;-92
2022/09/30 07:12:41;;;;;;;7.40;5.93;;;;;;;;;;5009760;28;20403;-89
2022/09/30 07:25:29;;;;;;;8.33;7.73;;;;;;;;;;4988910;28;20480;-92
2022/09/30 07:27:55;;;;;;;8.00;7.37;;;;;;;;;;4968945;28;20454;-92
2022/09/30 07:30:27;;;;;;;9.83;9.00;;;;;;;;;;4990679;28;20433;-91
2022/09/30 07:59:41;;;;;;;7.63;7.10;;;;;;;;;;4964081;28;20525;-92
2022/09/30 08:02:32;;;;;;;8.10;7.70;;;;;;;;;;4929290;29;20454;-93
2022/09/30 08:07:45;;;;;;;8.07;7.40;;;;;;;;;;4957258;29;20909;-91
2022/09/30 08:10:11;;;;;;;8.67;7.63;;;;;;;;;;4942238;28;20486;-90
2022/09/30 08:15:28;;;;;;;9.10;8.50;;;;;;;;;;5286883;23;20511;-93
2022/09/30 08:17:55;;;;;;;9.00;8.40;;;;;;;;;;4989676;23;20481;-89
2022/09/30 08:23:04;;;;;;;9.67;8.90;;;;;;;;;;5083408;23;20481;-93
2022/09/30 08:25:31;;;;;;;9.20;8.37;;;;;;;;;;4977621;28;20469;-93
2022/09/30 08:30:41;;;;;;;8.80;8.10;;;;;;;;;;5189573;23;20678;-91
2022/09/30 08:35:41;;;;;;;9.93;8.97;;;;;;;;;;5142864;23;20556;-91
2022/09/30 08:38:13;;;;;;;9.23;8.50;;;;;;;;;;4989678;28;20448;-92
2022/09/30 08:41:04;;;;;;;10.67;9.90;;;;;;;;;;5057434;23;20487;-95
2022/09/30 08:43:40;;;;;;;9.00;8.27;;;;;;;;;;5093846;23;20488;-93
2022/09/30 08:57:47;;;;;;;11.10;10.30;;;;;;;;;;5065461;23;20481;-91
2022/09/30 09:00:15;;;;;;;10.77;10.07;;;;;;;;;;4953227;28;20466;-92
2022/09/30 09:02:48;;;;;;;9.80;8.93;;;;;;;;;;4282290;28;10000581;-91
2022/09/30 09:05:24;;;;;;;10.00;9.33;;;;;;;;;;4978330;28;20476;-92
2022/09/30 09:08:07;;;;;;;11.20;10.40;;;;;;;;;;4967108;28;20409;-93
2022/09/30 09:10:39;;;;;;;13.50;10.20;;;;;;;;;;4986482;28;20460;-91
2022/09/30 09:13:20;;;;;;;11.07;10.17;;;;;;;;;;4977669;28;20497;-93
2022/09/30 09:15:46;;;;;;;9.87;9.10;;;;;;;;;;5241908;23;20542;-95
2022/09/30 09:18:27;;;;;;;10.37;9.67;;;;;;;;;;4973335;28;20456;-92
2022/09/30 09:21:03;;;;;;;10.23;9.63;;;;;;;;;;4968868;28;20612;-90
2022/09/30 09:23:32;;;;;;;10.57;9.97;;;;;;;;;;4994767;28;20432;-92
2022/09/30 09:31:16;;;;;;;9.93;9.43;;;;;;;;;;1459657;23;20434;-95
2022/09/30 09:33:42;;;;;;;9.93;9.17;;;;;;;;;;4947708;29;20430;-93
2022/09/30 09:36:27;;;;;;;10.00;9.40;;;;;;;;;;4962876;28;20450;-91
2022/09/30 09:39:12;;;;;;;9.07;8.40;;;;;;;;;;4954950;28;20438;-92
2022/09/30 09:41:46;;;;;;;10.03;9.07;;;;;;;;;;4957773;29;20434;-91
2022/09/30 09:44:52;;;;;;;;;;;;;;;;;;;;;
2022/09/30 09:55:08;;;;;;;9.80;9.30;;;;;;;;;;5748368;23;20708;-88
2022/09/30 09:57:43;;;;;;;9.53;9.00;;;;;;;;;;4983921;28;20434;-90
2022/09/30 10:03:17;;;;;;;9.60;8.80;;;;;;;;;;4983852;28;20484;-90
2022/09/30 10:05:43;;;;;;;9.67;9.17;;;;;;;;;;4950600;28;20758;-90
2022/09/30 10:08:13;;;;;;;8.37;8.00;;;;;;;;;;4954391;28;20438;-90
2022/09/30 10:10:49;;;;;;;9.00;8.47;;;;;;;;;;4944482;28;20536;-90
2022/09/30 10:13:16;;;;;;;9.30;8.77;;;;;;;;;;4946648;28;20858;-89
2022/09/30 10:15:42;;;;;;;9.83;9.03;;;;;;;;;;4954484;28;20456;-90
2022/09/30 10:18:15;;;;;;;9.93;9.13;;;;;;;;;;4958089;28;20425;-88
2022/09/30 10:20:49;;;;;;;9.47;8.87;;;;;;;;;;4949001;28;20525;-89
2022/09/30 10:23:35;;;;;;;10.10;9.40;;;;;;;;;;4968787;28;20422;-90
2022/09/30 10:26:13;;;;;;;8.80;8.30;;;;;;;;;;4955356;29;20462;-91
2022/09/30 10:29:12;;;;;;;9.23;8.63;;;;;;;;;;4990808;28;20417;-90
2022/09/30 10:31:41;;;;;;;10.63;9.70;;;;;;;;;;4944231;28;20447;-90
2022/09/30 10:34:24;;;;;;;8.43;7.87;;;;;;;;;;4912059;28;20513;-92
2022/09/30 10:42:27;;;;;;;9.03;8.50;;;;;;;;;;4998314;28;20537;-91
2022/09/30 10:45:22;;;;;;;9.10;8.40;;;;;;;;;;4950489;29;20438;-86
2022/09/30 10:47:56;;;;;;;11.40;8.80;;;;;;;;;;4947853;28;20425;-91
2022/09/30 10:51:02;;;;;;;8.27;7.70;;;;;;;;;;4985367;23;20482;-92
2022/09/30 11:02:21;;;;;;;8.00;7.33;;;;;;;;;;1206741;23;20795;-88
2022/09/30 11:04:50;;;;;;;7.47;7.07;;;;;;;;;;5004621;28;20641;-89
2022/09/30 11:07:27;;;;;;;6.57;6.17;;;;;;;;;;4964665;28;20433;-87
2022/09/30 11:13:24;;;;;;;6.13;5.70;;;;;;;;;;4930048;29;20420;-89
2022/09/30 11:16:10;;;;;;;13.23;12.30;;;;;;;;;;4637856;28;10000533;-90
2022/09/30 11:18:49;;;;;;;7.13;6.53;;;;;;;;;;4964042;28;20190;-89
2022/09/30 11:21:43;;;;;;;6.80;6.20;;;;;;;;;;4973320;28;21041;-90
2022/09/30 11:27:30;;;;;;;6.60;6.20;;;;;;;;;;4987034;28;20467;-84
2022/09/30 11:30:08;;;;;;;6.53;6.30;;;;;;;;;;4982918;28;20425;-88
2022/09/30 11:32:37;;;;;;;6.63;6.33;;;;;;;;;;4999201;28;20468;-87
2022/09/30 11:35:08;;;;;;;8.53;7.33;;;;;;;;;;4972541;28;20831;-88
2022/09/30 11:37:34;;;;;;;6.40;6.03;;;;;;;;;;4939716;29;20434;-88
2022/09/30 11:40:09;;;;;;;7.27;6.73;;;;;;;;;;4978627;28;20439;-87
2022/09/30 11:42:40;;;;;;;8.87;6.70;;;;;;;;;;4978574;28;20435;-87
2022/09/30 11:45:09;;;;;;;7.13;6.73;;;;;;;;;;4979172;28;20530;-87
2022/09/30 11:47:50;;;;;;;7.20;6.80;;;;;;;;;;4963644;28;20465;-90
2022/09/30 11:50:42;;;;;;;7.27;6.77;;;;;;;;;;4944904;28;20603;-88
2022/09/30 11:53:20;;;;;;;6.87;6.57;;;;;;;;;;4960673;28;20497;-89
2022/09/30 11:55:52;;;;;;;6.40;6.10;;;;;;;;;;4949093;28;20428;-90
2022/09/30 11:58:31;;;;;;;7.13;6.73;;;;;;;;;;4980939;28;20875;-88
2022/09/30 12:01:10;;;;;;;6.90;6.60;;;;;;;;;;4962951;28;20935;-86
2022/09/30 12:03:39;;;;;;;6.20;5.90;;;;;;;;;;4951896;29;20470;-91
2022/09/30 12:06:34;;;;;;;6.63;6.20;;;;;;;;;;4960550;29;20485;-87
2022/09/30 12:09:15;;;;;;;7.63;7.03;;;;;;;;;;4953294;29;20441;-85
2022/09/30 12:11:44;;;;;;;6.87;6.20;;;;;;;;;;4624581;28;10000079;-87
2022/09/30 12:14:15;;;;;;;6.93;6.40;;;;;;;;;;4965508;29;20505;-86
2022/09/30 12:16:41;;;;;;;6.20;5.80;;;;;;;;;;4971811;28;20551;-87
2022/09/30 12:19:20;;;;;;;6.17;5.87;;;;;;;;;;4965516;28;20441;-88
2022/09/30 12:21:52;;;;;;;6.47;6.17;;;;;;;;;;4958809;28;20529;-87
2022/09/30 12:24:37;;;;;;;11.90;11.00;;;;;;;;;;4947130;29;20435;-86
2022/09/30 12:27:39;;;;;;;6.60;6.30;;;;;;;;;;4956312;29;20473;-88
2022/09/30 12:30:16;;;;;;;6.90;6.60;;;;;;;;;;4921201;29;20502;-87
2022/09/30 12:32:57;;;;;;;5.53;5.30;;;;;;;;;;4947187;29;20561;-88
2022/09/30 12:35:27;;;;;;;6.07;5.70;;;;;;;;;;4933679;28;20766;-89
2022/09/30 12:38:05;;;;;;;5.13;4.93;;;;;;;;;;4952475;28;20442;-88
2022/09/30 12:40:50;;;;;;;5.70;5.30;;;;;;;;;;4951711;28;20453;-88
2022/09/30 12:43:26;;;;;;;4.63;4.50;;;;;;;;;;4954458;29;20414;-88
2022/09/30 12:46:14;;;;;;;4.90;4.80;;;;;;;;;;4965314;28;20891;-87
2022/09/30 12:48:44;;;;;;;5.63;5.27;;;;;;;;;;4963562;28;20438;-86
2022/09/30 12:51:18;;;;;;;4.83;4.73;;;;;;;;;;4960885;28;20429;-86
2022/09/30 12:53:53;;;;;;;6.10;5.90;;;;;;;;;;4939352;29;20417;-88
2022/09/30 12:56:27;;;;;;;6.60;6.20;;;;;;;;;;4953238;28;20441;-88
2022/09/30 12:58:53;;;;;;;5.70;5.50;;;;;;;;;;4974630;28;20414;-88
2022/09/30 13:01:24;;;;;;;6.00;5.70;;;;;;;;;;4947797;28;20457;-86
2022/09/30 13:03:52;;;;;;;7.43;6.73;;;;;;;;;;4972226;28;20530;-88
2022/09/30 13:06:22;;;;;;;6.50;6.17;;;;;;;;;;4979313;28;20639;-88
2022/09/30 13:09:08;;;;;;;7.90;7.30;;;;;;;;;;4975843;28;20421;-90
2022/09/30 13:11:41;;;;;;;6.53;6.17;;;;;;;;;;4963337;28;20459;-89
2022/09/30 13:14:44;;;;;;;5.73;5.40;;;;;;;;;;4957473;28;20429;-89
2022/09/30 13:17:11;;;;;;;5.53;5.23;;;;;;;;;;4968326;28;20462;-87
2022/09/30 13:19:39;;;;;;;6.17;5.80;;;;;;;;;;4958258;28;20490;-90
2022/09/30 13:22:23;;;;;;;5.50;5.10;;;;;;;;;;4973991;28;20433;-89
2022/09/30 13:25:04;;;;;;;5.60;5.30;;;;;;;;;;4954414;28;20466;-89
2022/09/30 13:27:41;;;;;;;5.77;5.37;;;;;;;;;;4969572;28;20448;-89
2022/09/30 13:30:14;;;;;;;6.00;5.70;;;;;;;;;;4976555;28;20452;-89
2022/09/30 13:32:46;;;;;;;6.47;5.93;;;;;;;;;;4957539;28;20454;-90
2022/09/30 13:35:30;;;;;;;5.20;5.00;;;;;;;;;;4937157;29;20427;-89
2022/09/30 13:38:11;;;;;;;5.80;5.30;;;;;;;;;;4973879;28;20616;-89
2022/09/30 13:40:43;;;;;;;6.10;5.70;;;;;;;;;;4974508;28;20907;-87
2022/09/30 13:43:12;;;;;;;6.50;5.10;;;;;;;;;;4975973;28;20504;-89
2022/09/30 13:45:44;;;;;;;4.87;4.53;;;;;;;;;;4972827;28;20476;-88
2022/09/30 13:48:35;;;;;;;5.13;4.93;;;;;;;;;;4992537;28;20790;-88
2022/09/30 13:51:05;;;;;;;7.33;6.73;;;;;;;;;;4959445;28;20439;-89
2022/09/30 13:53:40;;;;;;;4.93;4.73;;;;;;;;;;4978278;28;20428;-85
2022/09/30 13:56:13;;;;;;;4.53;4.23;;;;;;;;;;4970615;28;20444;-85
2022/09/30 13:58:51;;;;;;;5.30;4.90;;;;;;;;;;4982768;28;20421;-89
2022/09/30 14:01:25;;;;;;;4.50;4.27;;;;;;;;;;4962282;28;20448;-89
2022/09/30 14:04:03;;;;;;;4.27;4.03;;;;;;;;;;4935580;29;20474;-88
2022/09/30 14:07:01;;;;;;;6.57;6.07;;;;;;;;;;4955717;28;20489;-91
2022/09/30 14:09:50;;;;;;;8.20;4.90;;;;;;;;;;4937850;29;20522;-89
2022/09/30 14:12:22;;;;;;;5.13;4.93;;;;;;;;;;4962272;29;20453;-90
2022/09/30 14:15:01;;;;;;;5.37;5.13;;;;;;;;;;4940533;29;20423;-91
2022/09/30 14:17:28;;;;;;;4.67;4.43;;;;;;;;;;4972544;28;20645;-91
2022/09/30 14:20:00;;;;;;;4.23;4.00;;;;;;;;;;4956427;28;20430;-92
2022/09/30 14:22:28;;;;;;;4.17;3.90;;;;;;;;;;4969240;28;20441;-90
2022/09/30 14:24:57;;;;;;;4.50;4.07;;;;;;;;;;4959172;28;20434;-92
2022/09/30 14:27:35;;;;;;;3.90;3.60;;;;;;;;;;4954358;29;20429;-91
2022/09/30 14:30:03;;;;;;;4.27;4.07;;;;;;;;;;4954900;29;20517;-91
2022/09/30 14:32:49;;;;;;;3.97;3.73;;;;;;;;;;4966290;28;20477;-90
2022/09/30 14:35:20;;;;;;;4.90;4.63;;;;;;;;;;4935162;29;20463;-91
2022/09/30 14:37:51;;;;;;;4.10;4.00;;;;;;;;;;4968326;28;20975;-92
2022/09/30 14:40:25;;;;;;;4.43;4.13;;;;;;;;;;4955641;28;20500;-91
2022/09/30 14:42:51;;;;;;;4.50;4.20;;;;;;;;;;4609351;28;9999864;-90
2022/09/30 14:45:26;;;;;;;4.57;4.23;;;;;;;;;;4962520;29;20462;-90
2022/09/30 14:47:54;;;;;;;8.03;4.30;;;;;;;;;;4959285;28;20485;-90
2022/09/30 14:50:25;;;;;;;3.77;3.57;;;;;;;;;;4946997;28;20787;-90
2022/09/30 14:52:57;;;;;;;3.67;3.50;;;;;;;;;;4959671;28;20464;-90
2022/09/30 14:55:37;;;;;;;3.87;3.67;;;;;;;;;;4953623;28;20991;-90
2022/09/30 14:58:43;;;;;;;5.80;5.33;;;;;;;;;;4963622;28;20456;-88
2022/09/30 15:01:16;;;;;;;3.60;3.50;;;;;;;;;;4949968;28;20533;-89
2022/09/30 15:03:54;;;;;;;3.87;3.77;;;;;;;;;;4964044;28;20469;-86
2022/09/30 15:06:24;;;;;;;4.30;4.20;;;;;;;;;;4972177;28;20543;-90
2022/09/30 15:09:02;;;;;;;4.00;3.70;;;;;;;;;;4964630;28;20903;-91
2022/09/30 15:11:28;;;;;;;3.80;3.47;;;;;;;;;;4958216;28;21185;-91
2022/09/30 15:14:01;;;;;;;3.93;3.57;;;;;;;;;;4975892;28;20499;-90
2022/09/30 15:16:52;;;;;;;3.60;3.30;;;;;;;;;;4960971;28;20533;-89
2022/09/30 15:19:44;;;;;;;3.70;3.50;;;;;;;;;;4960300;28;20500;-91
2022/09/30 15:22:43;;;;;;;;;;;;;;;;;;;;;
2022/09/30 15:25:11;;;;;;;5.37;4.40;;;;;;;;;;4969546;28;20520;-89
2022/09/30 15:27:40;;;;;;;4.10;3.73;;;;;;;;;;4954580;28;21195;-90
2022/09/30 15:30:18;;;;;;;3.03;3.03;;;;;;;;;;4964745;28;21213;-91
2022/09/30 15:32:46;;;;;;;2.93;2.93;;;;;;;;;;4978474;28;20425;-91
2022/09/30 15:35:22;;;;;;;2.80;2.70;;;;;;;;;;4990765;28;20424;-90
2022/09/30 15:37:57;;;;;;;3.30;3.10;;;;;;;;;;4971965;28;20547;-89
2022/09/30 15:40:49;;;;;;;3.73;3.43;;;;;;;;;;4972530;28;20428;-91
2022/09/30 15:43:35;;;;;;;4.30;4.00;;;;;;;;;;4975672;28;20464;-88
2022/09/30 15:46:26;;;;;;;3.80;3.70;;;;;;;;;;4979222;28;20552;-91
2022/09/30 15:49:33;;;;;;;;;;;;;;;;;;;;;
2022/09/30 17:03:48;;;;;;;3.00;3.00;;;;;;;;;;5020919;23;21053;-88
2022/09/30 19:02:05;;;;;;;6.70;5.20;;;;;;;;;;3852355;26;10001697;-91
2022/09/30 19:23:09;;;;;;;5.20;5.00;;;;;;;;;;2133050;23;20549;-87
2022/09/30 19:25:38;;;;;;;5.23;4.83;;;;;;;;;;4965467;28;20465;-86
2022/09/30 23:01:21;;;;;;;5.83;5.47;;;;;;;;;;4965972;28;20472;-96
2022/09/30 23:03:59;;;;;;;4.77;4.47;;;;;;;;;;4956183;29;20433;-96
2022/09/30 23:06:48;;;;;;;4.70;4.50;;;;;;;;;;4929197;29;20493;-96
